Storm Events Database

Event Details

Event Hail
Magnitude 1.75 in.
State TEXAS
County/Area COLLIN
WFO FWD
Report Source Newspaper
NCDC Data Source CSV
Begin Date 2008-05-07 16:30:00.0 CST-6
Begin Location 2W MELISSA
Begin Lat/Lon 33.28/-96.61
End Date 2008-05-07 16:30:00.0 CST-6
Deaths Direct/Indirect 0/0 (fatality details below, when available...)
Injuries Direct/Indirect 0/0
Property Damage 5.00K
Crop Damage 0.00K
Episode Narrative A cold front and bulging dryline moved into north Texas during the afternoon hours as an upper level low pressure system moved from west Texas into Oklahoma. Numerous severe storms were the result with several reports of severe hail and wind damage. A cyclic supercell produced three tornadoes in Robertson County.
Event Narrative Golfball-size hail was reported west of Melissa.


     ‚Äč



All events for this episode:

Location County/Zone St. Date Time T.Z. Type Mag Dth Inj PrD CrD
Totals: 0 0 110.00K 0.00K
OLNEY YOUNG CO. TX 05/07/2008 15:06 CST-6 Thunderstorm Wind 52 kts. EG 0 0 75.00K 0.00K
BRYSON JACK CO. TX 05/07/2008 15:07 CST-6 Hail 1.00 in. 0 0 0.00K 0.00K
MONTAGUE MONTAGUE CO. TX 05/07/2008 15:30 CST-6 Thunderstorm Wind 50 kts. EG 0 0 10.00K 0.00K
MONTAGUE MONTAGUE CO. TX 05/07/2008 15:30 CST-6 Hail 0.88 in. 0 0 0.00K 0.00K
HALLSBURG MCLENNAN CO. TX 05/07/2008 15:50 CST-6 Thunderstorm Wind 50 kts. EG 0 0 3.00K 0.00K
PRAIRIE HILL LIMESTONE CO. TX 05/07/2008 16:04 CST-6 Hail 0.75 in. 0 0 0.00K 0.00K
ANNA COLLIN CO. TX 05/07/2008 16:19 CST-6 Hail 0.88 in. 0 0 0.00K 0.00K
VAN ALSTYNE GRAYSON CO. TX 05/07/2008 16:23 CST-6 Hail 0.88 in. 0 0 0.00K 0.00K
VAN ALSTYNE GRAYSON CO. TX 05/07/2008 16:23 CST-6 Thunderstorm Wind 56 kts. EG 0 0 0.00K 0.00K
MELISSA COLLIN CO. TX 05/07/2008 16:30 CST-6 Hail 1.75 in. 0 0 5.00K 0.00K
ECTOR FANNIN CO. TX 05/07/2008 16:35 CST-6 Hail 1.00 in. 0 0 0.00K 0.00K
BONHAM FANNIN CO. TX 05/07/2008 16:46 CST-6 Hail 1.25 in. 0 0 0.00K 0.00K
TRENTON FANNIN CO. TX 05/07/2008 16:47 CST-6 Hail 0.88 in. 0 0 0.00K 0.00K
TEAGUE FREESTONE CO. TX 05/07/2008 16:51 CST-6 Hail 0.75 in. 0 0 0.00K 0.00K
FINK GRAYSON CO. TX 05/07/2008 17:00 CST-6 Thunderstorm Wind 50 kts. EG 0 0 5.00K 0.00K
DEW FREESTONE CO. TX 05/07/2008 17:07 CST-6 Hail 1.00 in. 0 0 0.00K 0.00K
BUTLER FREESTONE CO. TX 05/07/2008 17:32 CST-6 Thunderstorm Wind 52 kts. EG 0 0 0.00K 0.00K
TUCKER ANDERSON CO. TX 05/07/2008 17:32 CST-6 Thunderstorm Wind 52 kts. EG 0 0 0.00K 0.00K
ELKHART ANDERSON CO. TX 05/07/2008 17:47 CST-6 Thunderstorm Wind 50 kts. EG 0 0 2.00K 0.00K
ELKHART ANDERSON CO. TX 05/07/2008 17:50 CST-6 Thunderstorm Wind 50 kts. EG 0 0 0.00K 0.00K
ELKHART ANDERSON CO. TX 05/07/2008 17:50 CST-6 Hail 0.88 in. 0 0 0.00K 0.00K
BUFFALO LEON CO. TX 05/07/2008 17:56 CST-6 Thunderstorm Wind 50 kts. EG 0 0 0.00K 0.00K
ECTOR FANNIN CO. TX 05/07/2008 17:57 CST-6 Hail 0.88 in. 0 0 0.00K 0.00K
REAGAN FALLS CO. TX 05/07/2008 18:47 CST-6 Hail 1.00 in. 0 0 0.00K 0.00K
STRANGER FALLS CO. TX 05/07/2008 19:08 CST-6 Thunderstorm Wind 61 kts. MG 0 0 0.00K 0.00K
BREMOND ROBERTSON CO. TX 05/07/2008 19:10 CST-6 Tornado EF0 0 0 10.00K 0.00K
PETTEWAY ROBERTSON CO. TX 05/07/2008 19:15 CST-6 Tornado EF1 0 0 0.00K 0.00K
NEW BADEN ROBERTSON CO. TX 05/07/2008 19:39 CST-6 Tornado EF0 0 0 0.00K 0.00K
Totals: 0 0 110.00K 0.00K